Amba, KY

3:53 AM EST on January 17, 2017 (GMT -0500)
Toms Creek rd | | Change Station

Elev 689 ft 37.59 °N, 82.64 °W | Updated 30 seconds ago

Rain
Rain
51.3 °F
Feels Like 51.3 °F
N
0.0
Wind Variable Wind from West

Today
High -- | Low -- °F
--% Chance of Precip.
Yesterday
High -- | Low -- °F
Precip. -- in
Pressure 30.06 in
Visibility 8.0 miles
Clouds Mostly Cloudy 7000 ft
Overcast 8500 ft
Dew Point 51 °F
Humidity 98%
Rainfall 0.02 in
Snow Depth Not available.
7:43 AM 5:38 PM
Waning Gibbous, 74% visible
METAR KJKL 170753Z AUTO 19005KT 8SM -RA BKN070 OVC085 14/11 A3008 RMK AO2 SLP180 P0001 T01440111
Pressure 30.06 in
Visibility 8.0 miles
Clouds Mostly Cloudy 7000 ft
Overcast 8500 ft
Dew Point 51 °F
Humidity 98%
Rainfall 0.02 in
Snow Depth Not available.
7:43 AM 5:38 PM
Waning Gibbous, 74% visible
METAR KJKL 170753Z AUTO 19005KT 8SM -RA BKN070 OVC085 14/11 A3008 RMK AO2 SLP180 P0001 T01440111

Get Your Daily Forecast Email!

Thanks for signing up!

Be on the lookout for a verification email in your inbox.

You'll start receiving the daily forecast at 8 AM.

×

10-Day Weather Forecast

Almanac

Astronomy

Jan. 17, 2017 Rise Set
Actual Time
Civil Twilight
Nautical Twilight
Astronomical Twilight
Moon
Length of Visible Light
Length of Day
Tomorrow will be .
, % of the Moon is Illuminated

Today's Extremes

State Highs State Lows

Community

WunderPhotos

Upload Photos

1,962,540 photos uploaded!

WunderBlog® & News

Nearby

Air Quality

  Air Quality AQ Index Pollutant
Not available.

Snow Depth

Station Depth Elevation

Earthquake Activity

City Distance Mag. Time & Date
Minimum magnitude displayed is 2.5.

Coastal Water Temperatures

Place Temperature

Stations

Nearby Weather Stations

Station Location Temp. Windchill Dew Point Humidity Wind Precip. Elev Updated Type
                   

Watches & Warnings

There are currently no watches in effect.